sensor_id;sensor_type;location;lat;lon;timestamp;P1;durP1;ratioP1;P2;durP2;ratioP2
27566;SDS011;15006;48.584;9.186;2023-02-26T00:00:26;4.90;;;2.30;;
27566;SDS011;15006;48.584;9.186;2023-02-26T00:02:55;2.50;;;2.15;;
27566;SDS011;15006;48.584;9.186;2023-02-26T00:05:23;4.43;;;2.13;;
27566;SDS011;15006;48.584;9.186;2023-02-26T00:07:51;3.83;;;2.17;;
27566;SDS011;15006;48.584;9.186;2023-02-26T00:10:19;3.60;;;2.40;;
27566;SDS011;15006;48.584;9.186;2023-02-26T00:12:47;3.90;;;2.40;;
27566;SDS011;15006;48.584;9.186;2023-02-26T00:15:15;4.55;;;2.60;;
27566;SDS011;15006;48.584;9.186;2023-02-26T00:20:32;4.57;;;2.55;;
27566;SDS011;15006;48.584;9.186;2023-02-26T00:23:02;3.17;;;2.22;;
27566;SDS011;15006;48.584;9.186;2023-02-26T00:25:29;2.70;;;2.50;;
27566;SDS011;15006;48.584;9.186;2023-02-26T00:27:57;5.88;;;2.42;;
27566;SDS011;15006;48.584;9.186;2023-02-26T00:30:27;3.72;;;2.33;;
27566;SDS011;15006;48.584;9.186;2023-02-26T00:32:57;7.80;;;2.70;;
27566;SDS011;15006;48.584;9.186;2023-02-26T00:35:25;5.32;;;3.05;;
27566;SDS011;15006;48.584;9.186;2023-02-26T00:38:03;3.28;;;2.90;;
27566;SDS011;15006;48.584;9.186;2023-02-26T00:43:20;2.90;;;2.55;;
27566;SDS011;15006;48.584;9.186;2023-02-26T00:51:56;2.50;;;2.30;;
27566;SDS011;15006;48.584;9.186;2023-02-26T00:54:28;2.60;;;2.40;;
27566;SDS011;15006;48.584;9.186;2023-02-26T00:56:56;3.00;;;2.42;;
27566;SDS011;15006;48.584;9.186;2023-02-26T00:59:23;5.85;;;2.20;;
27566;SDS011;15006;48.584;9.186;2023-02-26T01:01:50;3.15;;;2.50;;
27566;SDS011;15006;48.584;9.186;2023-02-26T01:04:19;3.42;;;2.30;;
27566;SDS011;15006;48.584;9.186;2023-02-26T01:06:52;4.03;;;2.50;;
27566;SDS011;15006;48.584;9.186;2023-02-26T01:09:28;3.67;;;2.20;;
27566;SDS011;15006;48.584;9.186;2023-02-26T01:11:59;3.08;;;2.88;;
27566;SDS011;15006;48.584;9.186;2023-02-26T01:14:29;3.08;;;2.80;;
27566;SDS011;15006;48.584;9.186;2023-02-26T01:19:47;4.75;;;2.53;;
27566;SDS011;15006;48.584;9.186;2023-02-26T01:22:59;2.75;;;2.30;;
27566;SDS011;15006;48.584;9.186;2023-02-26T01:25:36;2.90;;;2.70;;
27566;SDS011;15006;48.584;9.186;2023-02-26T01:28:06;5.65;;;3.05;;
27566;SDS011;15006;48.584;9.186;2023-02-26T01:30:33;2.92;;;2.70;;
27566;SDS011;15006;48.584;9.186;2023-02-26T01:33:25;3.60;;;2.97;;
27566;SDS011;15006;48.584;9.186;2023-02-26T01:36:02;3.38;;;3.05;;
27566;SDS011;15006;48.584;9.186;2023-02-26T01:44:40;7.88;;;3.80;;
27566;SDS011;15006;48.584;9.186;2023-02-26T01:50:22;6.50;;;3.35;;
27566;SDS011;15006;48.584;9.186;2023-02-26T01:53:13;4.18;;;3.20;;
27566;SDS011;15006;48.584;9.186;2023-02-26T01:55:44;3.30;;;3.00;;
27566;SDS011;15006;48.584;9.186;2023-02-26T01:58:15;4.90;;;3.42;;
27566;SDS011;15006;48.584;9.186;2023-02-26T02:00:42;4.32;;;2.88;;
27566;SDS011;15006;48.584;9.186;2023-02-26T02:03:08;4.00;;;3.00;;
27566;SDS011;15006;48.584;9.186;2023-02-26T02:08:26;3.28;;;3.05;;
27566;SDS011;15006;48.584;9.186;2023-02-26T02:10:52;3.60;;;2.83;;
27566;SDS011;15006;48.584;9.186;2023-02-26T02:13:37;7.85;;;3.45;;
27566;SDS011;15006;48.584;9.186;2023-02-26T02:16:47;3.83;;;3.00;;
27566;SDS011;15006;48.584;9.186;2023-02-26T02:26:09;6.22;;;3.20;;
27566;SDS011;15006;48.584;9.186;2023-02-26T02:29:06;3.38;;;3.08;;
27566;SDS011;15006;48.584;9.186;2023-02-26T02:32:10;7.38;;;3.38;;
27566;SDS011;15006;48.584;9.186;2023-02-26T02:38:25;4.07;;;3.40;;
27566;SDS011;15006;48.584;9.186;2023-02-26T02:41:05;8.38;;;3.20;;
27566;SDS011;15006;48.584;9.186;2023-02-26T02:43:43;5.25;;;3.47;;
27566;SDS011;15006;48.584;9.186;2023-02-26T02:46:13;3.53;;;3.22;;
27566;SDS011;15006;48.584;9.186;2023-02-26T02:48:47;6.78;;;3.45;;
27566;SDS011;15006;48.584;9.186;2023-02-26T02:53:56;3.42;;;2.85;;
27566;SDS011;15006;48.584;9.186;2023-02-26T02:56:46;6.95;;;3.50;;
27566;SDS011;15006;48.584;9.186;2023-02-26T02:59:36;6.13;;;3.58;;
27566;SDS011;15006;48.584;9.186;2023-02-26T03:02:10;3.95;;;3.40;;
27566;SDS011;15006;48.584;9.186;2023-02-26T03:05:16;3.95;;;3.30;;
27566;SDS011;15006;48.584;9.186;2023-02-26T03:07:51;4.40;;;3.10;;
27566;SDS011;15006;48.584;9.186;2023-02-26T03:10:21;7.38;;;3.30;;
27566;SDS011;15006;48.584;9.186;2023-02-26T03:12:47;5.53;;;3.45;;
27566;SDS011;15006;48.584;9.186;2023-02-26T03:15:14;4.50;;;3.70;;
27566;SDS011;15006;48.584;9.186;2023-02-26T03:17:59;5.40;;;2.97;;
27566;SDS011;15006;48.584;9.186;2023-02-26T03:21:17;3.80;;;2.90;;
27566;SDS011;15006;48.584;9.186;2023-02-26T03:24:05;3.28;;;2.97;;
27566;SDS011;15006;48.584;9.186;2023-02-26T03:29:32;4.32;;;3.05;;
27566;SDS011;15006;48.584;9.186;2023-02-26T03:32:23;7.22;;;3.30;;
27566;SDS011;15006;48.584;9.186;2023-02-26T03:35:07;3.85;;;2.90;;
27566;SDS011;15006;48.584;9.186;2023-02-26T03:37:44;7.82;;;3.22;;
27566;SDS011;15006;48.584;9.186;2023-02-26T03:40:22;5.72;;;2.92;;
27566;SDS011;15006;48.584;9.186;2023-02-26T03:43:02;3.35;;;3.03;;
27566;SDS011;15006;48.584;9.186;2023-02-26T03:45:36;4.07;;;3.15;;
27566;SDS011;15006;48.584;9.186;2023-02-26T03:48:04;4.55;;;2.75;;
27566;SDS011;15006;48.584;9.186;2023-02-26T03:53:21;3.47;;;2.65;;
27566;SDS011;15006;48.584;9.186;2023-02-26T03:56:05;3.00;;;2.70;;
27566;SDS011;15006;48.584;9.186;2023-02-26T03:58:55;7.35;;;3.28;;
27566;SDS011;15006;48.584;9.186;2023-02-26T04:01:22;7.00;;;3.05;;
27566;SDS011;15006;48.584;9.186;2023-02-26T04:03:59;3.50;;;3.20;;
27566;SDS011;15006;48.584;9.186;2023-02-26T04:06:32;6.47;;;4.45;;
27566;SDS011;15006;48.584;9.186;2023-02-26T04:08:59;8.73;;;4.90;;
27566;SDS011;15006;48.584;9.186;2023-02-26T04:11:27;6.78;;;4.47;;
27566;SDS011;15006;48.584;9.186;2023-02-26T04:13:55;8.88;;;5.05;;
27566;SDS011;15006;48.584;9.186;2023-02-26T04:16:20;6.28;;;4.82;;
27566;SDS011;15006;48.584;9.186;2023-02-26T04:18:48;5.85;;;5.25;;
27566;SDS011;15006;48.584;9.186;2023-02-26T04:21:15;7.22;;;4.13;;
27566;SDS011;15006;48.584;9.186;2023-02-26T04:23:43;4.15;;;3.40;;
27566;SDS011;15006;48.584;9.186;2023-02-26T04:26:09;3.05;;;2.85;;
27566;SDS011;15006;48.584;9.186;2023-02-26T04:28:37;4.88;;;3.33;;
27566;SDS011;15006;48.584;9.186;2023-02-26T04:31:04;5.55;;;3.20;;
27566;SDS011;15006;48.584;9.186;2023-02-26T04:33:31;3.85;;;2.88;;
27566;SDS011;15006;48.584;9.186;2023-02-26T04:35:58;4.60;;;3.25;;
27566;SDS011;15006;48.584;9.186;2023-02-26T04:38:25;3.10;;;2.80;;
27566;SDS011;15006;48.584;9.186;2023-02-26T04:40:51;6.97;;;2.92;;
27566;SDS011;15006;48.584;9.186;2023-02-26T04:43:17;5.00;;;3.33;;
27566;SDS011;15006;48.584;9.186;2023-02-26T04:45:44;3.65;;;3.35;;
27566;SDS011;15006;48.584;9.186;2023-02-26T04:48:12;5.47;;;3.65;;
27566;SDS011;15006;48.584;9.186;2023-02-26T04:50:39;8.23;;;3.90;;
27566;SDS011;15006;48.584;9.186;2023-02-26T04:53:06;5.97;;;3.72;;
27566;SDS011;15006;48.584;9.186;2023-02-26T04:55:33;4.05;;;3.35;;
27566;SDS011;15006;48.584;9.186;2023-02-26T04:58:00;4.28;;;3.70;;
27566;SDS011;15006;48.584;9.186;2023-02-26T05:00:27;4.50;;;3.33;;
27566;SDS011;15006;48.584;9.186;2023-02-26T05:02:53;4.90;;;3.50;;
27566;SDS011;15006;48.584;9.186;2023-02-26T05:05:19;6.07;;;4.05;;
27566;SDS011;15006;48.584;9.186;2023-02-26T05:07:45;7.40;;;3.97;;
27566;SDS011;15006;48.584;9.186;2023-02-26T05:10:11;7.25;;;3.88;;
27566;SDS011;15006;48.584;9.186;2023-02-26T05:12:37;8.68;;;4.20;;
27566;SDS011;15006;48.584;9.186;2023-02-26T05:15:03;7.57;;;3.40;;
27566;SDS011;15006;48.584;9.186;2023-02-26T05:17:30;6.68;;;3.17;;
27566;SDS011;15006;48.584;9.186;2023-02-26T05:19:56;4.20;;;3.10;;
27566;SDS011;15006;48.584;9.186;2023-02-26T05:22:22;3.67;;;2.97;;
27566;SDS011;15006;48.584;9.186;2023-02-26T05:24:48;3.95;;;3.28;;
27566;SDS011;15006;48.584;9.186;2023-02-26T05:27:14;4.38;;;3.17;;
27566;SDS011;15006;48.584;9.186;2023-02-26T05:29:40;4.72;;;3.33;;
27566;SDS011;15006;48.584;9.186;2023-02-26T05:32:09;4.03;;;3.40;;
27566;SDS011;15006;48.584;9.186;2023-02-26T05:34:36;3.63;;;3.33;;
27566;SDS011;15006;48.584;9.186;2023-02-26T05:37:02;4.82;;;2.83;;
27566;SDS011;15006;48.584;9.186;2023-02-26T05:39:28;6.05;;;3.08;;
27566;SDS011;15006;48.584;9.186;2023-02-26T05:41:54;3.20;;;2.65;;
27566;SDS011;15006;48.584;9.186;2023-02-26T05:44:21;4.50;;;3.45;;
27566;SDS011;15006;48.584;9.186;2023-02-26T05:46:47;3.72;;;2.92;;
27566;SDS011;15006;48.584;9.186;2023-02-26T05:49:14;6.30;;;3.33;;
27566;SDS011;15006;48.584;9.186;2023-02-26T05:51:40;4.72;;;3.55;;
27566;SDS011;15006;48.584;9.186;2023-02-26T05:54:07;3.35;;;3.15;;
27566;SDS011;15006;48.584;9.186;2023-02-26T05:56:34;5.45;;;3.20;;
27566;SDS011;15006;48.584;9.186;2023-02-26T05:59:00;7.10;;;3.42;;
27566;SDS011;15006;48.584;9.186;2023-02-26T06:01:27;9.13;;;3.75;;
27566;SDS011;15006;48.584;9.186;2023-02-26T06:03:54;7.75;;;3.28;;
27566;SDS011;15006;48.584;9.186;2023-02-26T06:06:20;6.35;;;3.85;;
27566;SDS011;15006;48.584;9.186;2023-02-26T06:08:46;4.53;;;3.30;;
27566;SDS011;15006;48.584;9.186;2023-02-26T06:11:12;5.22;;;3.22;;
27566;SDS011;15006;48.584;9.186;2023-02-26T06:13:39;5.60;;;3.90;;
27566;SDS011;15006;48.584;9.186;2023-02-26T06:16:05;11.93;;;4.18;;
27566;SDS011;15006;48.584;9.186;2023-02-26T06:18:31;4.20;;;3.70;;
27566;SDS011;15006;48.584;9.186;2023-02-26T06:20:58;8.38;;;4.07;;
27566;SDS011;15006;48.584;9.186;2023-02-26T06:23:25;6.53;;;3.90;;
27566;SDS011;15006;48.584;9.186;2023-02-26T06:25:51;7.18;;;3.72;;
27566;SDS011;15006;48.584;9.186;2023-02-26T06:28:18;8.23;;;3.97;;
27566;SDS011;15006;48.584;9.186;2023-02-26T06:30:44;8.27;;;4.60;;
27566;SDS011;15006;48.584;9.186;2023-02-26T06:33:11;5.32;;;3.72;;
27566;SDS011;15006;48.584;9.186;2023-02-26T06:35:37;16.95;;;5.00;;
27566;SDS011;15006;48.584;9.186;2023-02-26T06:38:03;9.60;;;4.90;;
27566;SDS011;15006;48.584;9.186;2023-02-26T06:40:29;8.95;;;4.85;;
27566;SDS011;15006;48.584;9.186;2023-02-26T06:42:55;5.05;;;4.13;;
27566;SDS011;15006;48.584;9.186;2023-02-26T06:45:21;8.95;;;4.35;;
27566;SDS011;15006;48.584;9.186;2023-02-26T06:47:49;3.65;;;3.35;;
27566;SDS011;15006;48.584;9.186;2023-02-26T06:50:16;5.07;;;4.00;;
27566;SDS011;15006;48.584;9.186;2023-02-26T06:52:42;6.97;;;3.90;;
27566;SDS011;15006;48.584;9.186;2023-02-26T06:55:08;6.63;;;3.78;;
27566;SDS011;15006;48.584;9.186;2023-02-26T06:57:35;4.35;;;3.95;;
27566;SDS011;15006;48.584;9.186;2023-02-26T07:00:02;5.47;;;3.80;;
27566;SDS011;15006;48.584;9.186;2023-02-26T07:02:30;5.07;;;3.70;;
27566;SDS011;15006;48.584;9.186;2023-02-26T07:04:56;7.43;;;4.05;;
27566;SDS011;15006;48.584;9.186;2023-02-26T07:07:22;5.82;;;3.78;;
27566;SDS011;15006;48.584;9.186;2023-02-26T07:09:48;9.50;;;3.67;;
27566;SDS011;15006;48.584;9.186;2023-02-26T07:12:14;4.15;;;3.83;;
27566;SDS011;15006;48.584;9.186;2023-02-26T07:14:41;5.80;;;3.88;;
27566;SDS011;15006;48.584;9.186;2023-02-26T07:17:08;5.45;;;4.05;;
27566;SDS011;15006;48.584;9.186;2023-02-26T07:19:34;10.13;;;4.60;;
27566;SDS011;15006;48.584;9.186;2023-02-26T07:22:00;11.15;;;5.45;;
27566;SDS011;15006;48.584;9.186;2023-02-26T07:24:27;6.00;;;4.20;;
27566;SDS011;15006;48.584;9.186;2023-02-26T07:26:53;6.28;;;3.85;;
27566;SDS011;15006;48.584;9.186;2023-02-26T07:29:19;7.65;;;3.42;;
27566;SDS011;15006;48.584;9.186;2023-02-26T07:31:45;4.53;;;3.20;;
27566;SDS011;15006;48.584;9.186;2023-02-26T07:34:11;7.10;;;3.72;;
27566;SDS011;15006;48.584;9.186;2023-02-26T07:36:37;8.07;;;4.43;;
27566;SDS011;15006;48.584;9.186;2023-02-26T07:39:03;4.55;;;4.15;;
27566;SDS011;15006;48.584;9.186;2023-02-26T07:41:29;6.45;;;4.03;;
27566;SDS011;15006;48.584;9.186;2023-02-26T07:43:54;8.05;;;4.45;;
27566;SDS011;15006;48.584;9.186;2023-02-26T07:46:21;7.05;;;3.90;;
27566;SDS011;15006;48.584;9.186;2023-02-26T07:48:47;5.88;;;4.03;;
27566;SDS011;15006;48.584;9.186;2023-02-26T07:51:13;5.75;;;3.53;;
27566;SDS011;15006;48.584;9.186;2023-02-26T07:53:39;6.93;;;3.40;;
27566;SDS011;15006;48.584;9.186;2023-02-26T07:56:05;7.20;;;3.83;;
27566;SDS011;15006;48.584;9.186;2023-02-26T07:58:31;6.63;;;3.30;;
27566;SDS011;15006;48.584;9.186;2023-02-26T08:00:57;7.50;;;3.30;;
27566;SDS011;15006;48.584;9.186;2023-02-26T08:03:23;4.15;;;2.88;;
27566;SDS011;15006;48.584;9.186;2023-02-26T08:05:49;5.95;;;2.97;;
27566;SDS011;15006;48.584;9.186;2023-02-26T08:08:15;4.40;;;2.88;;
27566;SDS011;15006;48.584;9.186;2023-02-26T08:10:41;4.88;;;2.45;;
27566;SDS011;15006;48.584;9.186;2023-02-26T08:13:07;5.45;;;2.80;;
27566;SDS011;15006;48.584;9.186;2023-02-26T08:15:33;5.45;;;2.88;;
27566;SDS011;15006;48.584;9.186;2023-02-26T08:17:59;7.10;;;3.20;;
27566;SDS011;15006;48.584;9.186;2023-02-26T08:20:25;3.42;;;3.13;;
27566;SDS011;15006;48.584;9.186;2023-02-26T08:22:51;7.95;;;3.05;;
27566;SDS011;15006;48.584;9.186;2023-02-26T08:25:17;7.03;;;3.28;;
27566;SDS011;15006;48.584;9.186;2023-02-26T08:27:44;7.80;;;3.08;;
27566;SDS011;15006;48.584;9.186;2023-02-26T08:30:10;4.57;;;2.95;;
27566;SDS011;15006;48.584;9.186;2023-02-26T08:32:36;6.13;;;3.10;;
27566;SDS011;15006;48.584;9.186;2023-02-26T08:35:04;5.72;;;3.00;;
27566;SDS011;15006;48.584;9.186;2023-02-26T08:37:30;6.88;;;2.80;;
27566;SDS011;15006;48.584;9.186;2023-02-26T08:39:56;5.22;;;3.05;;
27566;SDS011;15006;48.584;9.186;2023-02-26T08:42:22;3.35;;;2.97;;
27566;SDS011;15006;48.584;9.186;2023-02-26T08:44:48;4.60;;;3.17;;
27566;SDS011;15006;48.584;9.186;2023-02-26T08:47:14;3.05;;;2.80;;
27566;SDS011;15006;48.584;9.186;2023-02-26T08:49:40;3.38;;;2.95;;
27566;SDS011;15006;48.584;9.186;2023-02-26T08:52:06;3.63;;;3.25;;
27566;SDS011;15006;48.584;9.186;2023-02-26T08:54:32;5.47;;;2.90;;
27566;SDS011;15006;48.584;9.186;2023-02-26T08:56:58;4.15;;;3.25;;
27566;SDS011;15006;48.584;9.186;2023-02-26T08:59:24;5.22;;;3.80;;
27566;SDS011;15006;48.584;9.186;2023-02-26T09:01:50;5.68;;;3.92;;
27566;SDS011;15006;48.584;9.186;2023-02-26T09:04:17;8.82;;;5.18;;
27566;SDS011;15006;48.584;9.186;2023-02-26T09:06:43;7.35;;;4.22;;
27566;SDS011;15006;48.584;9.186;2023-02-26T09:09:09;12.57;;;7.75;;
27566;SDS011;15006;48.584;9.186;2023-02-26T09:11:35;5.43;;;4.30;;
27566;SDS011;15006;48.584;9.186;2023-02-26T09:14:02;4.10;;;3.10;;
27566;SDS011;15006;48.584;9.186;2023-02-26T09:16:29;3.85;;;3.47;;
27566;SDS011;15006;48.584;9.186;2023-02-26T09:18:56;9.35;;;3.03;;
27566;SDS011;15006;48.584;9.186;2023-02-26T09:21:22;3.03;;;2.70;;
27566;SDS011;15006;48.584;9.186;2023-02-26T09:23:48;5.97;;;2.97;;
27566;SDS011;15006;48.584;9.186;2023-02-26T09:26:14;8.25;;;2.65;;
27566;SDS011;15006;48.584;9.186;2023-02-26T09:28:40;6.20;;;3.10;;
27566;SDS011;15006;48.584;9.186;2023-02-26T09:31:06;4.03;;;3.15;;
27566;SDS011;15006;48.584;9.186;2023-02-26T09:33:32;4.70;;;2.75;;
27566;SDS011;15006;48.584;9.186;2023-02-26T09:35:58;6.72;;;3.83;;
27566;SDS011;15006;48.584;9.186;2023-02-26T09:38:26;7.03;;;3.53;;
27566;SDS011;15006;48.584;9.186;2023-02-26T09:40:57;3.13;;;2.92;;
27566;SDS011;15006;48.584;9.186;2023-02-26T09:46:33;3.45;;;3.15;;
27566;SDS011;15006;48.584;9.186;2023-02-26T09:49:55;3.40;;;3.13;;
27566;SDS011;15006;48.584;9.186;2023-02-26T09:55:27;3.70;;;2.20;;
27566;SDS011;15006;48.584;9.186;2023-02-26T09:58:23;4.47;;;3.03;;
27566;SDS011;15006;48.584;9.186;2023-02-26T10:13:21;4.13;;;2.95;;
27566;SDS011;15006;48.584;9.186;2023-02-26T10:16:27;4.07;;;3.47;;
27566;SDS011;15006;48.584;9.186;2023-02-26T10:19:21;4.43;;;3.85;;
27566;SDS011;15006;48.584;9.186;2023-02-26T10:22:00;3.58;;;3.10;;
27566;SDS011;15006;48.584;9.186;2023-02-26T10:24:39;5.63;;;3.20;;
27566;SDS011;15006;48.584;9.186;2023-02-26T10:27:13;4.90;;;4.40;;
27566;SDS011;15006;48.584;9.186;2023-02-26T10:29:48;3.75;;;3.15;;
27566;SDS011;15006;48.584;9.186;2023-02-26T10:32:29;5.65;;;5.18;;
27566;SDS011;15006;48.584;9.186;2023-02-26T10:35:08;4.03;;;3.83;;
27566;SDS011;15006;48.584;9.186;2023-02-26T10:45:54;3.30;;;3.05;;
27566;SDS011;15006;48.584;9.186;2023-02-26T10:51:14;3.92;;;3.63;;
27566;SDS011;15006;48.584;9.186;2023-02-26T10:53:53;4.57;;;4.18;;
27566;SDS011;15006;48.584;9.186;2023-02-26T10:56:29;3.67;;;3.38;;
27566;SDS011;15006;48.584;9.186;2023-02-26T10:58:57;4.20;;;3.90;;
27566;SDS011;15006;48.584;9.186;2023-02-26T11:01:24;5.43;;;4.22;;
27566;SDS011;15006;48.584;9.186;2023-02-26T11:03:58;5.90;;;3.75;;
27566;SDS011;15006;48.584;9.186;2023-02-26T11:06:30;7.60;;;6.28;;
27566;SDS011;15006;48.584;9.186;2023-02-26T11:09:24;7.80;;;6.30;;
27566;SDS011;15006;48.584;9.186;2023-02-26T11:14:28;3.45;;;3.25;;
27566;SDS011;15006;48.584;9.186;2023-02-26T11:16:59;4.35;;;3.42;;
27566;SDS011;15006;48.584;9.186;2023-02-26T11:19:32;2.90;;;2.47;;
27566;SDS011;15006;48.584;9.186;2023-02-26T11:22:03;9.60;;;2.55;;
27566;SDS011;15006;48.584;9.186;2023-02-26T11:24:41;3.30;;;3.08;;
27566;SDS011;15006;48.584;9.186;2023-02-26T11:27:19;2.50;;;2.33;;
27566;SDS011;15006;48.584;9.186;2023-02-26T11:29:55;2.97;;;2.40;;
27566;SDS011;15006;48.584;9.186;2023-02-26T11:32:32;4.78;;;3.05;;
27566;SDS011;15006;48.584;9.186;2023-02-26T11:35:01;4.65;;;3.28;;
27566;SDS011;15006;48.584;9.186;2023-02-26T11:37:28;3.22;;;2.92;;
27566;SDS011;15006;48.584;9.186;2023-02-26T11:40:21;5.28;;;4.30;;
27566;SDS011;15006;48.584;9.186;2023-02-26T11:42:54;4.65;;;3.40;;
27566;SDS011;15006;48.584;9.186;2023-02-26T11:45:28;2.45;;;2.35;;
27566;SDS011;15006;48.584;9.186;2023-02-26T11:47:58;2.33;;;2.20;;
27566;SDS011;15006;48.584;9.186;2023-02-26T11:50:37;2.72;;;2.45;;
27566;SDS011;15006;48.584;9.186;2023-02-26T11:53:16;2.30;;;2.10;;
27566;SDS011;15006;48.584;9.186;2023-02-26T11:55:50;2.47;;;2.28;;
27566;SDS011;15006;48.584;9.186;2023-02-26T11:58:21;2.70;;;2.60;;
27566;SDS011;15006;48.584;9.186;2023-02-26T12:00:52;3.75;;;2.55;;
27566;SDS011;15006;48.584;9.186;2023-02-26T12:03:25;2.20;;;1.90;;
27566;SDS011;15006;48.584;9.186;2023-02-26T12:05:59;2.50;;;2.30;;
27566;SDS011;15006;48.584;9.186;2023-02-26T12:08:31;5.68;;;4.20;;
27566;SDS011;15006;48.584;9.186;2023-02-26T12:19:39;2.67;;;2.50;;
27566;SDS011;15006;48.584;9.186;2023-02-26T12:25:32;3.22;;;2.28;;
27566;SDS011;15006;48.584;9.186;2023-02-26T12:28:49;2.35;;;2.15;;
27566;SDS011;15006;48.584;9.186;2023-02-26T12:31:34;2.22;;;1.92;;
27566;SDS011;15006;48.584;9.186;2023-02-26T12:42:50;2.00;;;1.90;;
27566;SDS011;15006;48.584;9.186;2023-02-26T12:45:43;2.58;;;1.70;;
27566;SDS011;15006;48.584;9.186;2023-02-26T13:01:00;2.88;;;1.67;;
27566;SDS011;15006;48.584;9.186;2023-02-26T13:07:12;1.92;;;1.83;;
27566;SDS011;15006;48.584;9.186;2023-02-26T13:10:14;2.08;;;1.90;;
27566;SDS011;15006;48.584;9.186;2023-02-26T13:15:48;1.90;;;1.80;;
27566;SDS011;15006;48.584;9.186;2023-02-26T13:18:47;1.98;;;1.88;;
27566;SDS011;15006;48.584;9.186;2023-02-26T13:21:34;2.28;;;1.70;;
27566;SDS011;15006;48.584;9.186;2023-02-26T13:24:06;1.60;;;1.52;;
27566;SDS011;15006;48.584;9.186;2023-02-26T13:26:56;5.63;;;1.88;;
27566;SDS011;15006;48.584;9.186;2023-02-26T13:29:25;1.52;;;1.52;;
27566;SDS011;15006;48.584;9.186;2023-02-26T13:31:59;1.88;;;1.77;;
27566;SDS011;15006;48.584;9.186;2023-02-26T13:37:25;1.65;;;1.55;;
27566;SDS011;15006;48.584;9.186;2023-02-26T13:51:05;4.50;;;4.15;;
27566;SDS011;15006;48.584;9.186;2023-02-26T13:56:05;1.70;;;1.60;;
27566;SDS011;15006;48.584;9.186;2023-02-26T13:58:41;1.90;;;1.80;;
27566;SDS011;15006;48.584;9.186;2023-02-26T14:01:14;2.78;;;2.58;;
27566;SDS011;15006;48.584;9.186;2023-02-26T14:03:48;1.80;;;1.70;;
27566;SDS011;15006;48.584;9.186;2023-02-26T14:08:53;1.90;;;1.80;;
27566;SDS011;15006;48.584;9.186;2023-02-26T14:11:41;1.40;;;1.40;;
27566;SDS011;15006;48.584;9.186;2023-02-26T14:14:18;2.05;;;1.80;;
27566;SDS011;15006;48.584;9.186;2023-02-26T14:16:48;1.10;;;1.10;;
27566;SDS011;15006;48.584;9.186;2023-02-26T14:19:22;1.00;;;1.00;;
27566;SDS011;15006;48.584;9.186;2023-02-26T14:22:01;1.27;;;1.20;;
27566;SDS011;15006;48.584;9.186;2023-02-26T14:24:44;0.82;;;0.82;;
27566;SDS011;15006;48.584;9.186;2023-02-26T14:27:44;1.63;;;1.52;;
27566;SDS011;15006;48.584;9.186;2023-02-26T14:30:27;1.50;;;1.08;;
27566;SDS011;15006;48.584;9.186;2023-02-26T14:35:34;1.77;;;0.80;;
27566;SDS011;15006;48.584;9.186;2023-02-26T14:38:20;0.90;;;0.90;;
27566;SDS011;15006;48.584;9.186;2023-02-26T14:41:00;0.90;;;0.90;;
27566;SDS011;15006;48.584;9.186;2023-02-26T14:46:04;1.02;;;0.85;;
27566;SDS011;15006;48.584;9.186;2023-02-26T14:48:33;2.08;;;1.30;;
27566;SDS011;15006;48.584;9.186;2023-02-26T15:02:40;0.90;;;0.90;;
27566;SDS011;15006;48.584;9.186;2023-02-26T15:08:33;0.80;;;0.80;;
27566;SDS011;15006;48.584;9.186;2023-02-26T15:20:21;0.70;;;0.70;;
27566;SDS011;15006;48.584;9.186;2023-02-26T15:23:14;0.80;;;0.80;;
27566;SDS011;15006;48.584;9.186;2023-02-26T15:26:00;0.60;;;0.60;;
27566;SDS011;15006;48.584;9.186;2023-02-26T15:28:37;0.70;;;0.70;;
27566;SDS011;15006;48.584;9.186;2023-02-26T15:31:05;0.90;;;0.90;;
27566;SDS011;15006;48.584;9.186;2023-02-26T15:33:34;0.70;;;0.70;;
27566;SDS011;15006;48.584;9.186;2023-02-26T15:36:06;3.38;;;0.60;;
27566;SDS011;15006;48.584;9.186;2023-02-26T15:38:44;0.57;;;0.57;;
27566;SDS011;15006;48.584;9.186;2023-02-26T15:41:14;0.65;;;0.65;;
27566;SDS011;15006;48.584;9.186;2023-02-26T15:43:45;1.10;;;1.00;;
27566;SDS011;15006;48.584;9.186;2023-02-26T15:46:15;1.50;;;1.40;;
27566;SDS011;15006;48.584;9.186;2023-02-26T15:48:42;1.65;;;1.30;;
27566;SDS011;15006;48.584;9.186;2023-02-26T15:51:09;1.00;;;1.00;;
27566;SDS011;15006;48.584;9.186;2023-02-26T15:53:42;1.00;;;1.00;;
27566;SDS011;15006;48.584;9.186;2023-02-26T15:56:19;0.70;;;0.70;;
27566;SDS011;15006;48.584;9.186;2023-02-26T15:58:55;3.92;;;1.27;;
27566;SDS011;15006;48.584;9.186;2023-02-26T16:01:27;1.40;;;1.30;;
27566;SDS011;15006;48.584;9.186;2023-02-26T16:03:56;1.73;;;1.27;;
27566;SDS011;15006;48.584;9.186;2023-02-26T16:06:34;1.50;;;1.17;;
27566;SDS011;15006;48.584;9.186;2023-02-26T16:09:06;2.67;;;0.98;;
27566;SDS011;15006;48.584;9.186;2023-02-26T16:11:43;1.20;;;1.10;;
27566;SDS011;15006;48.584;9.186;2023-02-26T16:14:14;5.88;;;5.15;;
27566;SDS011;15006;48.584;9.186;2023-02-26T16:16:50;2.15;;;2.00;;
27566;SDS011;15006;48.584;9.186;2023-02-26T16:19:20;1.88;;;1.20;;
27566;SDS011;15006;48.584;9.186;2023-02-26T16:22:13;1.02;;;1.02;;
27566;SDS011;15006;48.584;9.186;2023-02-26T16:25:16;1.98;;;1.67;;
27566;SDS011;15006;48.584;9.186;2023-02-26T16:27:51;4.68;;;4.38;;
27566;SDS011;15006;48.584;9.186;2023-02-26T16:30:47;2.72;;;2.53;;
27566;SDS011;15006;48.584;9.186;2023-02-26T16:33:17;3.22;;;2.90;;
27566;SDS011;15006;48.584;9.186;2023-02-26T16:35:48;2.30;;;2.10;;
27566;SDS011;15006;48.584;9.186;2023-02-26T16:38:48;4.38;;;2.92;;
27566;SDS011;15006;48.584;9.186;2023-02-26T16:41:24;8.65;;;5.30;;
27566;SDS011;15006;48.584;9.186;2023-02-26T16:43:54;4.30;;;3.35;;
27566;SDS011;15006;48.584;9.186;2023-02-26T16:46:33;4.15;;;2.97;;
27566;SDS011;15006;48.584;9.186;2023-02-26T16:51:48;3.08;;;2.33;;
27566;SDS011;15006;48.584;9.186;2023-02-26T16:54:20;4.15;;;3.75;;
27566;SDS011;15006;48.584;9.186;2023-02-26T16:57:26;5.55;;;3.35;;
27566;SDS011;15006;48.584;9.186;2023-02-26T16:59:55;4.10;;;2.80;;
27566;SDS011;15006;48.584;9.186;2023-02-26T17:02:28;2.30;;;2.10;;
27566;SDS011;15006;48.584;9.186;2023-02-26T17:04:59;4.53;;;3.10;;
27566;SDS011;15006;48.584;9.186;2023-02-26T17:07:46;3.30;;;3.00;;
27566;SDS011;15006;48.584;9.186;2023-02-26T17:10:28;5.50;;;3.45;;
27566;SDS011;15006;48.584;9.186;2023-02-26T17:13:18;3.92;;;2.47;;
27566;SDS011;15006;48.584;9.186;2023-02-26T17:15:54;3.35;;;2.70;;
27566;SDS011;15006;48.584;9.186;2023-02-26T17:18:26;2.28;;;1.90;;
27566;SDS011;15006;48.584;9.186;2023-02-26T17:20:52;1.52;;;1.42;;
27566;SDS011;15006;48.584;9.186;2023-02-26T17:23:18;5.38;;;1.30;;
27566;SDS011;15006;48.584;9.186;2023-02-26T17:25:49;2.17;;;1.70;;
27566;SDS011;15006;48.584;9.186;2023-02-26T17:28:27;6.00;;;5.00;;
27566;SDS011;15006;48.584;9.186;2023-02-26T17:31:01;2.35;;;1.58;;
27566;SDS011;15006;48.584;9.186;2023-02-26T17:33:28;2.17;;;2.08;;
27566;SDS011;15006;48.584;9.186;2023-02-26T17:35:58;2.20;;;1.60;;
27566;SDS011;15006;48.584;9.186;2023-02-26T17:38:27;1.73;;;1.30;;
27566;SDS011;15006;48.584;9.186;2023-02-26T17:40:54;1.42;;;1.33;;
27566;SDS011;15006;48.584;9.186;2023-02-26T17:43:22;9.23;;;4.47;;
27566;SDS011;15006;48.584;9.186;2023-02-26T17:45:48;15.35;;;7.13;;
27566;SDS011;15006;48.584;9.186;2023-02-26T17:48:15;8.93;;;6.00;;
27566;SDS011;15006;48.584;9.186;2023-02-26T17:50:52;2.45;;;2.25;;
27566;SDS011;15006;48.584;9.186;2023-02-26T17:53:20;3.10;;;2.85;;
27566;SDS011;15006;48.584;9.186;2023-02-26T17:55:51;2.20;;;1.98;;
27566;SDS011;15006;48.584;9.186;2023-02-26T17:58:25;1.90;;;1.77;;
27566;SDS011;15006;48.584;9.186;2023-02-26T18:00:54;1.65;;;1.10;;
27566;SDS011;15006;48.584;9.186;2023-02-26T18:03:21;1.50;;;1.40;;
27566;SDS011;15006;48.584;9.186;2023-02-26T18:05:47;1.83;;;1.63;;
27566;SDS011;15006;48.584;9.186;2023-02-26T18:08:24;2.10;;;1.90;;